Time;durP1;ratioP1;P1;durP2;ratioP2;P2;SDS_P1;SDS_P2;PMS_P1;PMS_P2;Temp;Humidity;BMP_temperature;BMP_pressure;BME280_temperature;BME280_humidity;BME280_pressure;Samples;Min_cycle;Max_cycle;Signal;HPM_P1;HPM_P2
2023/12/23 00:01:18;;;;;;;2.93;0.60;;;;;;;4.93;88.53;99377.88;5054737;28;20204;-80
2023/12/23 00:03:44;;;;;;;4.23;0.80;;;;;;;4.84;88.53;99372.84;5054475;28;20225;-80
2023/12/23 00:06:11;;;;;;;5.17;0.87;;;;;;;4.92;89.96;99367.59;5054224;28;20257;-80
2023/12/23 00:08:37;;;;;;;4.83;1.10;;;;;;;5.04;89.85;99359.66;5054034;28;20206;-79
2023/12/23 00:11:04;;;;;;;2.27;0.60;;;;;;;4.68;88.46;99387.69;5054562;28;20657;-80
2023/12/23 00:13:30;;;;;;;4.47;1.27;;;;;;;4.84;87.57;99401.28;5054421;28;20711;-79
2023/12/23 00:15:57;;;;;;;3.83;0.80;;;;;;;4.85;87.79;99428.00;5054644;28;20214;-81
2023/12/23 00:18:24;;;;;;;1.07;0.70;;;;;;;4.76;87.21;99441.91;5054619;28;20260;-81
2023/12/23 00:20:51;;;;;;;4.97;1.40;;;;;;;4.73;86.96;99458.28;5054611;28;20675;-80
2023/12/23 00:23:17;;;;;;;1.93;0.63;;;;;;;4.76;86.09;99484.09;5054539;28;20245;-79
2023/12/23 00:25:43;;;;;;;5.50;1.30;;;;;;;4.80;85.80;99508.22;5054662;28;20211;-80
2023/12/23 00:28:10;;;;;;;3.40;1.03;;;;;;;4.49;86.07;99513.66;5055200;28;20236;-79
2023/12/23 00:30:36;;;;;;;2.40;0.80;;;;;;;4.38;86.53;99508.59;5054401;28;20202;-80
2023/12/23 00:33:05;;;;;;;5.13;1.63;;;;;;;4.46;87.63;99497.31;5053872;28;20215;-79
2023/12/23 00:35:32;;;;;;;6.17;0.80;;;;;;;4.41;87.41;99493.94;5053937;28;20210;-80
2023/12/23 00:37:59;;;;;;;4.23;1.00;;;;;;;4.33;87.33;99500.03;5053846;28;20202;-79
2023/12/23 00:40:25;;;;;;;5.20;0.70;;;;;;;4.30;88.19;99486.28;5053748;28;20198;-80
2023/12/23 00:42:51;;;;;;;3.30;1.07;;;;;;;4.08;87.60;99486.44;5054634;28;20690;-78
2023/12/23 00:45:18;;;;;;;3.23;0.90;;;;;;;4.27;86.94;99506.97;5054030;28;20230;-80
2023/12/23 00:47:44;;;;;;;6.63;1.30;;;;;;;4.38;85.97;99525.84;5054654;28;20297;-80
2023/12/23 00:50:10;;;;;;;1.47;0.67;;;;;;;4.16;84.57;99550.97;5054455;28;20633;-80
2023/12/23 00:52:38;;;;;;;9.73;1.43;;;;;;;4.11;84.27;99569.06;5053852;28;20685;-79
2023/12/23 00:55:04;;;;;;;3.70;0.77;;;;;;;4.25;83.88;99584.47;5053677;28;20778;-80
2023/12/23 00:57:31;;;;;;;2.77;0.80;;;;;;;4.16;84.25;99603.50;5055378;28;20255;-79
2023/12/23 00:59:57;;;;;;;4.10;0.80;;;;;;;4.36;84.43;99597.31;5054350;28;20249;-80
2023/12/23 01:02:24;;;;;;;1.83;0.80;;;;;;;4.09;85.04;99616.44;5054114;28;20227;-80
2023/12/23 01:04:50;;;;;;;3.30;0.53;;;;;;;3.91;86.55;99592.44;5054453;28;20237;-80
2023/12/23 01:07:17;;;;;;;3.13;1.00;;;;;;;4.20;86.75;99557.81;5054351;28;20233;-80
2023/12/23 01:09:44;;;;;;;3.37;1.37;;;;;;;3.74;88.61;99556.38;5053991;28;20203;-80
2023/12/23 01:12:11;;;;;;;4.67;1.13;;;;;;;4.03;88.60;99526.13;5054659;28;20235;-79
2023/12/23 01:14:37;;;;;;;4.50;1.00;;;;;;;4.09;88.26;99519.16;5053553;28;20237;-80
2023/12/23 01:17:04;;;;;;;2.53;1.00;;;;;;;3.87;88.98;99508.13;5054429;28;20224;-80
2023/12/23 01:19:30;;;;;;;3.50;1.23;;;;;;;4.06;88.49;99500.25;5057470;28;20205;-79
2023/12/23 01:21:57;;;;;;;6.17;1.13;;;;;;;3.95;87.20;99511.53;5058241;28;20209;-79
2023/12/23 01:24:23;;;;;;;4.67;1.03;;;;;;;3.97;86.97;99533.03;5057291;28;20232;-79
2023/12/23 01:26:51;;;;;;;2.93;0.87;;;;;;;3.83;87.71;99541.72;5058026;28;20225;-80
2023/12/23 01:29:17;;;;;;;4.00;0.93;;;;;;;3.88;87.18;99534.81;5058514;28;20205;-79
2023/12/23 01:31:44;;;;;;;2.67;0.70;;;;;;;3.95;87.31;99544.22;5057944;28;20237;-80
2023/12/23 01:34:10;;;;;;;4.17;0.90;;;;;;;4.00;87.66;99547.63;5057616;28;20277;-80
2023/12/23 01:36:36;;;;;;;3.80;1.40;;;;;;;4.19;86.51;99553.53;5058245;28;20251;-80
2023/12/23 01:39:04;;;;;;;6.90;1.57;;;;;;;4.05;86.72;99563.09;5057176;28;20226;-80
2023/12/23 01:41:30;;;;;;;4.97;1.37;;;;;;;4.09;86.67;99560.50;5057855;28;20210;-80
2023/12/23 01:43:58;;;;;;;5.60;1.40;;;;;;;4.02;87.05;99555.38;5057938;28;20227;-80
2023/12/23 01:46:25;;;;;;;7.77;1.40;;;;;;;4.14;86.64;99550.13;5057405;28;20672;-79
2023/12/23 01:48:51;;;;;;;8.57;1.40;;;;;;;4.12;85.96;99562.19;5057397;28;20292;-79
2023/12/23 01:51:18;;;;;;;5.90;1.07;;;;;;;4.20;85.53;99578.47;5057652;28;20215;-80
2023/12/23 01:53:45;;;;;;;6.63;1.17;;;;;;;4.18;85.36;99588.84;5057456;28;20229;-79
2023/12/23 01:56:12;;;;;;;4.33;1.00;;;;;;;4.37;84.41;99604.22;5058072;28;20216;-80
2023/12/23 01:58:38;;;;;;;6.03;1.20;;;;;;;4.46;83.73;99629.09;5057724;28;20203;-80
2023/12/23 02:01:06;;;;;;;6.53;1.30;;;;;;;4.50;82.45;99659.22;5057906;28;20210;-79
2023/12/23 02:03:32;;;;;;;4.13;1.40;;;;;;;4.46;81.90;99689.41;5057315;28;20226;-80
2023/12/23 02:05:59;;;;;;;9.37;2.07;;;;;;;4.55;81.11;99696.25;5057673;28;20618;-80
2023/12/23 02:08:26;;;;;;;6.03;1.87;;;;;;;4.68;81.07;99728.06;5057566;28;20703;-80
2023/12/23 02:11:03;;;;;;;6.77;1.87;;;;;;;4.87;79.92;99747.72;5057272;28;20204;-80
2023/12/23 02:13:37;;;;;;;4.17;1.10;;;;;;;4.52;80.58;99766.91;5057846;28;20248;-80
2023/12/23 02:16:04;;;;;;;9.10;1.60;;;;;;;4.47;81.69;99760.03;5056547;28;20275;-80
2023/12/23 02:18:32;;;;;;;5.30;1.20;;;;;;;4.73;81.21;99746.97;5057807;28;20211;-79
2023/12/23 02:21:00;;;;;;;3.10;1.40;;;;;;;4.50;80.49;99763.47;5068919;28;20206;-78
2023/12/23 02:23:26;;;;;;;3.30;1.13;;;;;;;4.68;80.86;99769.41;5060997;28;20251;-78
2023/12/23 02:25:58;;;;;;;4.70;1.17;;;;;;;4.57;81.31;99780.66;5068324;28;20210;-78
2023/12/23 02:28:25;;;;;;;8.37;1.80;;;;;;;4.67;80.86;99770.28;5058922;28;20256;-78
2023/12/23 02:30:54;;;;;;;4.47;1.20;;;;;;;4.52;80.96;99766.03;5066541;28;20214;-78
2023/12/23 02:33:21;;;;;;;6.00;1.47;;;;;;;4.73;81.39;99752.13;5068241;28;20279;-79
2023/12/23 02:35:52;;;;;;;4.60;1.23;;;;;;;4.77;82.13;99746.91;5064078;28;20207;-80
2023/12/23 02:38:20;;;;;;;8.87;1.40;;;;;;;4.74;82.04;99720.25;5055389;28;20256;-79
2023/12/23 02:40:47;;;;;;;7.93;1.80;;;;;;;4.80;82.75;99716.75;5055012;28;20213;-80
2023/12/23 02:43:13;;;;;;;8.97;1.40;;;;;;;4.81;83.34;99703.81;5054825;28;20210;-80
2023/12/23 02:45:40;;;;;;;5.10;1.30;;;;;;;4.77;83.57;99686.59;5054832;28;20286;-79
2023/12/23 02:48:06;;;;;;;6.17;1.67;;;;;;;4.83;83.04;99681.38;5054633;28;20230;-79
2023/12/23 02:50:33;;;;;;;4.40;1.40;;;;;;;4.76;83.66;99669.41;5055282;28;20205;-79
2023/12/23 02:52:59;;;;;;;7.17;1.60;;;;;;;4.72;83.63;99658.22;5054819;28;20206;-79
2023/12/23 02:55:27;;;;;;;6.67;1.37;;;;;;;4.71;84.09;99651.31;5054322;28;20736;-77
2023/12/23 02:57:54;;;;;;;6.87;1.67;;;;;;;4.71;83.88;99645.28;5055232;28;20618;-79
2023/12/23 03:00:20;;;;;;;5.73;1.53;;;;;;;4.94;83.19;99655.47;5054748;28;20213;-80
2023/12/23 03:02:47;;;;;;;5.80;1.60;;;;;;;5.04;81.82;99669.16;5055205;28;20265;-80
2023/12/23 03:05:13;;;;;;;9.50;1.13;;;;;;;4.99;81.80;99695.06;5054685;28;20225;-79
2023/12/23 03:07:39;;;;;;;5.93;1.40;;;;;;;4.96;79.04;99731.31;5054753;28;20226;-78
2023/12/23 03:10:07;;;;;;;4.57;1.40;;;;;;;5.11;79.41;99757.06;5054526;28;20210;-79
2023/12/23 03:12:35;;;;;;;7.57;1.80;;;;;;;5.23;78.87;99762.97;5054472;28;20626;-80
2023/12/23 03:15:02;;;;;;;3.87;1.33;;;;;;;5.14;78.38;99793.22;5054521;28;20226;-79
2023/12/23 03:17:29;;;;;;;5.87;1.60;;;;;;;5.08;78.01;99821.72;5047267;28;20269;-80
2023/12/23 03:19:55;;;;;;;4.50;1.07;;;;;;;5.11;78.14;99813.97;5054640;28;20217;-80
2023/12/23 03:22:21;;;;;;;7.17;1.20;;;;;;;5.11;79.18;99819.13;5054427;28;20256;-80
2023/12/23 03:24:48;;;;;;;6.17;1.53;;;;;;;5.08;79.83;99795.00;5054666;28;20285;-80
2023/12/23 03:27:14;;;;;;;8.57;1.60;;;;;;;4.91;82.24;99771.84;5055092;28;20305;-78
2023/12/23 03:29:42;;;;;;;7.10;1.30;;;;;;;5.16;82.60;99713.03;5054881;28;20216;-80
2023/12/23 03:32:08;;;;;;;6.27;1.30;;;;;;;5.07;82.55;99689.81;5054705;28;20213;-78
2023/12/23 03:34:34;;;;;;;5.23;1.40;;;;;;;5.15;83.47;99685.44;5053530;28;20221;-79
2023/12/23 03:37:01;;;;;;;6.00;1.50;;;;;;;5.00;83.84;99657.13;5054522;28;20212;-79
2023/12/23 03:39:27;;;;;;;11.27;1.50;;;;;;;4.94;84.24;99637.34;5054220;28;20256;-80
2023/12/23 03:41:53;;;;;;;7.77;2.13;;;;;;;4.91;83.21;99647.72;5054560;28;20262;-80
2023/12/23 03:44:20;;;;;;;4.50;1.37;;;;;;;4.86;84.38;99637.41;5054521;28;20277;-78
2023/12/23 03:46:46;;;;;;;7.23;1.33;;;;;;;5.03;85.70;99595.88;5053661;28;20198;-78
2023/12/23 03:49:13;;;;;;;8.07;1.30;;;;;;;4.98;87.16;99556.28;5054336;28;20232;-79
2023/12/23 03:51:39;;;;;;;7.83;1.67;;;;;;;4.81;87.62;99538.34;5054086;28;20206;-79
2023/12/23 03:54:05;;;;;;;6.43;1.90;;;;;;;4.87;87.86;99509.84;5053271;28;20275;-80
2023/12/23 03:56:32;;;;;;;7.07;1.53;;;;;;;4.95;87.83;99492.50;5053898;28;20210;-79
2023/12/23 03:58:58;;;;;;;8.80;2.27;;;;;;;4.98;87.45;99479.56;5054426;28;20567;-79
2023/12/23 04:01:25;;;;;;;4.37;1.77;;;;;;;4.83;87.60;99489.22;5053634;28;20556;-78
2023/12/23 04:03:53;;;;;;;5.27;1.23;;;;;;;5.07;87.46;99481.16;5053927;28;20229;-80
2023/12/23 04:06:19;;;;;;;9.93;1.30;;;;;;;5.03;87.40;99500.19;5053873;28;20208;-79
2023/12/23 04:08:46;;;;;;;12.63;1.50;;;;;;;5.02;89.01;99456.25;5053674;28;20226;-79
2023/12/23 04:11:12;;;;;;;4.73;1.50;;;;;;;4.96;89.24;99428.72;5054123;28;20234;-79
2023/12/23 04:13:39;;;;;;;5.33;1.77;;;;;;;5.00;91.14;99398.53;5053739;28;20225;-80
2023/12/23 04:16:06;;;;;;;5.30;1.27;;;;;;;4.83;90.25;99376.28;5053631;28;20259;-80
2023/12/23 04:18:32;;;;;;;5.17;1.30;;;;;;;4.89;90.83;99376.22;5054128;28;20745;-79
2023/12/23 04:21:00;;;;;;;5.83;1.07;;;;;;;4.78;91.54;99368.63;5053605;28;20210;-80
2023/12/23 04:23:26;;;;;;;3.80;1.20;;;;;;;4.67;92.56;99354.09;5053965;28;20234;-80
2023/12/23 04:25:53;;;;;;;6.03;1.67;;;;;;;4.76;93.19;99330.75;5053488;28;20628;-79
2023/12/23 04:28:24;;;;;;;3.43;1.17;;;;;;;4.71;93.77;99323.03;5054069;28;20233;-80
2023/12/23 04:30:53;;;;;;;8.40;1.30;;;;;;;4.83;93.95;99306.50;5053988;28;20588;-79
2023/12/23 04:33:20;;;;;;;11.63;1.63;;;;;;;4.69;95.17;99273.06;5053991;28;20209;-80
2023/12/23 04:35:46;;;;;;;3.70;0.97;;;;;;;4.65;96.70;99247.31;5054915;28;20236;-80
2023/12/23 04:38:14;;;;;;;8.33;1.57;;;;;;;4.52;98.24;99223.34;5053883;28;20224;-79
2023/12/23 04:40:40;;;;;;;4.17;1.13;;;;;;;4.67;99.76;99180.94;5053554;28;20242;-79
2023/12/23 04:43:06;;;;;;;4.27;1.73;;;;;;;4.61;100.00;99161.19;5053268;28;20251;-79
2023/12/23 04:45:33;;;;;;;6.23;1.07;;;;;;;4.44;100.00;99135.63;5052586;28;20255;-79
2023/12/23 04:47:59;;;;;;;4.87;1.40;;;;;;;4.32;100.00;99117.72;5053344;28;20218;-79
2023/12/23 04:50:26;;;;;;;11.17;1.53;;;;;;;4.26;100.00;99095.44;5053895;28;20702;-78
2023/12/23 04:52:52;;;;;;;6.83;1.60;;;;;;;4.16;100.00;99062.84;5054685;28;20626;-79
2023/12/23 04:55:20;;;;;;;3.57;1.07;;;;;;;4.17;100.00;99034.44;5056069;28;20220;-79
2023/12/23 04:57:48;;;;;;;6.07;1.20;;;;;;;4.19;100.00;99006.00;5059355;28;20194;-79
2023/12/23 05:00:16;;;;;;;4.80;1.10;;;;;;;4.27;100.00;99009.31;5058495;28;20290;-79
2023/12/23 05:02:42;;;;;;;7.57;1.70;;;;;;;4.22;100.00;99005.09;5058003;28;20210;-79
2023/12/23 05:05:09;;;;;;;8.60;1.47;;;;;;;4.44;100.00;98992.66;5057373;28;20221;-78
2023/12/23 05:07:35;;;;;;;4.67;1.60;;;;;;;4.30;100.00;98988.63;5057601;28;20276;-78
2023/12/23 05:10:02;;;;;;;5.80;1.60;;;;;;;4.31;100.00;98974.81;5057024;28;20207;-79
2023/12/23 05:12:30;;;;;;;7.27;1.70;;;;;;;4.34;100.00;98979.94;5057683;28;20209;-79
2023/12/23 05:14:57;;;;;;;9.43;1.33;;;;;;;4.56;100.00;98974.38;5056626;28;20225;-79
2023/12/23 05:17:23;;;;;;;4.03;1.20;;;;;;;4.67;100.00;98982.78;5057186;28;20195;-80
2023/12/23 05:19:50;;;;;;;6.13;1.37;;;;;;;4.62;100.00;98989.78;5057418;28;20206;-79
2023/12/23 05:22:16;;;;;;;4.93;1.00;;;;;;;4.61;100.00;98990.63;5056776;28;20259;-78
2023/12/23 05:24:43;;;;;;;4.07;1.30;;;;;;;4.75;100.00;99001.56;5056209;28;20296;-79
2023/12/23 05:27:11;;;;;;;6.07;1.10;;;;;;;4.67;100.00;99000.88;5057333;28;20688;-79
2023/12/23 05:29:38;;;;;;;8.97;1.90;;;;;;;4.63;100.00;98988.88;5056123;28;20285;-79
2023/12/23 05:32:06;;;;;;;5.90;1.50;;;;;;;4.89;100.00;98995.28;5057717;28;20214;-79
2023/12/23 05:34:33;;;;;;;4.83;0.93;;;;;;;4.87;100.00;99010.00;5056508;28;20271;-79
2023/12/23 05:36:59;;;;;;;2.90;1.00;;;;;;;4.78;100.00;99011.88;5057011;28;20689;-79
2023/12/23 05:39:25;;;;;;;7.33;0.97;;;;;;;4.93;100.00;99023.63;5056429;28;20210;-79
2023/12/23 05:41:52;;;;;;;8.07;1.20;;;;;;;4.70;100.00;99028.41;5057190;28;20202;-79
2023/12/23 05:44:18;;;;;;;4.53;1.77;;;;;;;4.85;100.00;99029.84;5055886;28;20709;-78
2023/12/23 05:46:46;;;;;;;2.67;0.97;;;;;;;4.87;100.00;99036.69;5056704;28;20661;-79
2023/12/23 05:49:12;;;;;;;2.33;0.73;;;;;;;5.03;100.00;99015.72;5056813;28;20245;-79
2023/12/23 05:51:38;;;;;;;5.23;0.97;;;;;;;4.91;100.00;99011.63;5056924;28;20224;-79
2023/12/23 05:54:05;;;;;;;6.17;1.20;;;;;;;4.97;100.00;99004.63;5056504;28;20225;-78
2023/12/23 05:56:31;;;;;;;3.33;0.87;;;;;;;4.70;100.00;98989.63;5056421;28;20263;-78
2023/12/23 05:58:58;;;;;;;6.97;1.10;;;;;;;4.80;100.00;98975.66;5057410;28;20235;-79
2023/12/23 06:01:24;;;;;;;4.50;0.90;;;;;;;4.79;100.00;98968.78;5056410;28;20677;-79
2023/12/23 06:03:51;;;;;;;4.60;1.17;;;;;;;4.74;100.00;98968.88;5056824;28;20278;-79
2023/12/23 06:06:18;;;;;;;2.60;1.00;;;;;;;4.84;100.00;98972.13;5056839;28;20678;-78
2023/12/23 06:08:44;;;;;;;4.40;0.97;;;;;;;4.70;100.00;98969.81;5056180;28;20240;-78
2023/12/23 06:11:11;;;;;;;4.97;1.23;;;;;;;4.51;100.00;98965.84;5056837;28;20201;-79
2023/12/23 06:13:37;;;;;;;2.83;0.90;;;;;;;4.75;100.00;98954.19;5056472;28;20230;-79
2023/12/23 06:16:07;;;;;;;4.93;1.10;;;;;;;4.72;100.00;98918.09;5056665;28;20210;-78
2023/12/23 06:18:34;;;;;;;3.40;0.77;;;;;;;4.71;100.00;98919.81;5057275;28;20211;-80
2023/12/23 06:21:02;;;;;;;2.30;0.83;;;;;;;4.47;100.00;98921.13;5056865;28;20247;-78
2023/12/23 06:23:28;;;;;;;2.53;0.90;;;;;;;4.41;100.00;98907.47;5056695;28;20247;-79
2023/12/23 06:25:55;;;;;;;1.27;0.73;;;;;;;4.44;100.00;98897.94;5056399;28;20206;-79
2023/12/23 06:28:21;;;;;;;2.33;0.90;;;;;;;4.52;100.00;98884.84;5056969;28;20239;-79
2023/12/23 06:30:47;;;;;;;1.80;0.80;;;;;;;4.76;100.00;98875.78;5057365;28;20260;-79
2023/12/23 06:33:14;;;;;;;3.40;0.67;;;;;;;4.66;100.00;98867.38;5056728;28;20279;-80
2023/12/23 06:35:40;;;;;;;2.73;0.80;;;;;;;4.72;100.00;98869.81;5056830;28;20848;-79
2023/12/23 06:38:08;;;;;;;2.63;1.23;;;;;;;4.68;100.00;98869.94;5056628;28;20202;-79
2023/12/23 06:40:34;;;;;;;2.57;0.77;;;;;;;4.34;100.00;98858.53;5056162;28;20816;-79
2023/12/23 06:43:01;;;;;;;3.73;1.50;;;;;;;4.52;100.00;98820.25;5057218;28;20555;-80
2023/12/23 06:45:27;;;;;;;2.17;0.93;;;;;;;4.43;100.00;98823.06;5056688;28;20214;-79
2023/12/23 06:47:53;;;;;;;2.13;1.20;;;;;;;4.40;100.00;98811.06;5057190;28;20251;-80
2023/12/23 06:50:20;;;;;;;2.53;0.90;;;;;;;4.35;100.00;98798.22;5057503;28;20268;-80
2023/12/23 06:52:46;;;;;;;2.70;0.83;;;;;;;4.42;100.00;98777.41;5048677;28;20626;-80
2023/12/23 06:55:14;;;;;;;3.00;0.90;;;;;;;4.44;100.00;98779.13;5056301;28;20685;-80
2023/12/23 06:57:41;;;;;;;3.27;1.30;;;;;;;4.42;100.00;98783.47;5057359;28;20206;-80
2023/12/23 07:00:08;;;;;;;1.33;0.80;;;;;;;4.49;100.00;98791.94;5056985;28;20197;-80
2023/12/23 07:02:35;;;;;;;1.63;0.93;;;;;;;4.58;100.00;98786.56;5056772;28;20205;-81
2023/12/23 07:05:01;;;;;;;1.33;1.17;;;;;;;4.54;100.00;98792.69;5056919;28;20229;-80
2023/12/23 07:07:27;;;;;;;2.47;1.07;;;;;;;4.43;100.00;98781.72;5056658;28;20263;-80
2023/12/23 07:09:54;;;;;;;2.30;1.20;;;;;;;4.57;100.00;98780.53;5056827;28;20222;-80
2023/12/23 07:12:22;;;;;;;1.47;0.80;;;;;;;4.34;100.00;98781.03;5056408;28;20213;-80
2023/12/23 07:14:48;;;;;;;1.93;1.00;;;;;;;4.28;100.00;98776.00;5047956;28;20296;-80
2023/12/23 07:17:14;;;;;;;2.87;1.13;;;;;;;4.13;100.00;98784.03;5056257;28;20208;-80
2023/12/23 07:19:41;;;;;;;2.43;0.70;;;;;;;4.51;100.00;98765.16;5057066;28;20209;-80
2023/12/23 07:22:06;;;;;;;1.03;0.40;;;;;;;4.22;100.00;98772.66;5056806;28;20198;-80
2023/12/23 07:24:33;;;;;;;1.40;0.53;;;;;;;4.12;100.00;98774.56;5056241;28;20288;-80
2023/12/23 07:27:01;;;;;;;1.80;0.50;;;;;;;4.09;100.00;98764.34;5057050;28;20205;-80
2023/12/23 07:29:28;;;;;;;2.13;0.60;;;;;;;3.99;100.00;98766.25;5056470;28;20234;-80
2023/12/23 07:31:55;;;;;;;1.80;0.40;;;;;;;3.93;100.00;98756.88;5056296;28;20216;-80
2023/12/23 07:34:21;;;;;;;0.77;0.33;;;;;;;4.03;100.00;98736.91;5056309;28;20283;-80
2023/12/23 07:36:47;;;;;;;1.03;0.30;;;;;;;4.03;100.00;98739.47;5056232;28;20224;-80
2023/12/23 07:39:15;;;;;;;1.73;0.33;;;;;;;4.07;100.00;98737.69;5056190;28;20257;-80
2023/12/23 07:41:41;;;;;;;0.50;0.27;;;;;;;4.15;100.00;98721.16;5056761;28;20202;-81
2023/12/23 07:44:07;;;;;;;3.03;0.50;;;;;;;4.14;100.00;98745.28;5056887;28;20221;-80
2023/12/23 07:46:35;;;;;;;1.17;0.30;;;;;;;4.00;100.00;98743.84;5055967;28;20469;-80
2023/12/23 07:49:01;;;;;;;1.07;0.37;;;;;;;4.10;100.00;98735.03;5056704;28;20270;-80
2023/12/23 07:51:28;;;;;;;1.50;0.40;;;;;;;4.00;100.00;98731.78;5056951;28;20207;-81
2023/12/23 07:53:54;;;;;;;1.07;0.40;;;;;;;4.09;100.00;98733.34;5056413;28;20290;-80
2023/12/23 07:56:20;;;;;;;2.90;0.50;;;;;;;4.38;100.00;98728.44;5056099;28;20228;-79
2023/12/23 07:58:47;;;;;;;0.83;0.33;;;;;;;4.15;100.00;98746.97;5056202;28;20237;-80
2023/12/23 08:01:13;;;;;;;0.43;0.40;;;;;;;3.95;100.00;98747.38;5056271;28;20199;-79
2023/12/23 08:03:41;;;;;;;0.40;0.10;;;;;;;3.90;100.00;98763.81;5055034;28;20229;-79
2023/12/23 08:06:07;;;;;;;0.30;0.30;;;;;;;4.24;100.00;98766.63;5056275;28;20674;-80
2023/12/23 08:08:33;;;;;;;2.50;0.60;;;;;;;4.45;100.00;98773.03;5056287;28;20225;-79
2023/12/23 08:11:00;;;;;;;0.63;0.30;;;;;;;4.32;100.00;98787.97;5056397;28;20253;-80
2023/12/23 08:13:27;;;;;;;0.80;0.40;;;;;;;4.18;100.00;98795.13;5055231;28;20224;-79
2023/12/23 08:15:54;;;;;;;1.07;0.70;;;;;;;4.13;100.00;98792.63;5047918;28;20197;-80
2023/12/23 08:18:20;;;;;;;0.90;0.40;;;;;;;3.80;100.00;98782.94;5055794;28;20207;-79
2023/12/23 08:20:48;;;;;;;1.23;1.13;;;;;;;4.11;100.00;98778.91;5055623;28;20204;-79
2023/12/23 08:23:15;;;;;;;1.57;1.47;;;;;;;4.16;100.00;98783.97;5055852;28;20204;-80
2023/12/23 08:25:41;;;;;;;0.87;0.67;;;;;;;4.45;100.00;98793.72;5055050;28;20219;-80
2023/12/23 08:28:07;;;;;;;0.83;0.83;;;;;;;4.42;100.00;98813.59;5057771;28;20205;-80
2023/12/23 08:30:34;;;;;;;0.93;0.30;;;;;;;4.48;100.00;98837.59;5059391;28;20241;-80
2023/12/23 08:33:03;;;;;;;0.20;0.20;;;;;;;4.00;100.00;98855.69;5059797;28;20211;-79
2023/12/23 08:35:29;;;;;;;0.40;0.40;;;;;;;4.10;100.00;98839.19;5059982;28;20293;-81
2023/12/23 08:37:57;;;;;;;1.03;0.40;;;;;;;4.10;100.00;98830.56;5059622;28;20573;-78
2023/12/23 08:40:23;;;;;;;0.30;0.30;;;;;;;4.14;100.00;98829.63;5058170;28;20553;-79
2023/12/23 08:42:50;;;;;;;0.50;0.43;;;;;;;4.20;100.00;98833.81;5059122;28;20738;-79
2023/12/23 08:45:17;;;;;;;0.60;0.60;;;;;;;4.35;100.00;98843.88;5058200;28;20310;-79
2023/12/23 08:47:43;;;;;;;0.50;0.50;;;;;;;4.48;100.00;98852.22;5059458;28;20313;-78
2023/12/23 08:50:10;;;;;;;0.63;0.50;;;;;;;4.42;100.00;98873.88;5060682;28;20228;-79
2023/12/23 08:52:36;;;;;;;0.50;0.50;;;;;;;4.59;100.00;98876.13;5060455;28;20283;-79
2023/12/23 08:55:05;;;;;;;0.50;0.50;;;;;;;4.47;100.00;98897.03;5058443;28;20218;-79
2023/12/23 08:57:33;;;;;;;0.40;0.33;;;;;;;4.00;100.00;98927.13;5058678;28;20261;-79
2023/12/23 09:00:00;;;;;;;21.33;16.37;;;;;;;3.88;100.00;98923.88;5059067;28;20677;-78
2023/12/23 09:02:26;;;;;;;4.70;4.30;;;;;;;3.87;100.00;98926.50;5058575;28;20229;-79
2023/12/23 09:04:53;;;;;;;6.37;5.87;;;;;;;3.37;100.00;98928.97;5058415;28;20225;-78
2023/12/23 09:07:19;;;;;;;0.77;0.77;;;;;;;3.26;100.00;98903.31;5058711;28;20202;-79
2023/12/23 09:09:45;;;;;;;1.10;1.00;;;;;;;3.41;100.00;98879.06;5058803;28;20716;-79
2023/12/23 09:12:13;;;;;;;1.57;1.47;;;;;;;3.68;100.00;98869.16;5059253;28;20202;-79
2023/12/23 09:14:39;;;;;;;1.57;1.47;;;;;;;3.36;100.00;98870.53;5058204;28;20230;-78
2023/12/23 09:17:06;;;;;;;1.40;1.30;;;;;;;3.51;100.00;98861.72;5058763;28;20564;-78
2023/12/23 09:19:33;;;;;;;1.53;1.43;;;;;;;3.58;100.00;98868.44;5057475;28;20206;-78
2023/12/23 09:21:59;;;;;;;1.03;0.60;;;;;;;3.62;100.00;98858.94;5057514;28;20275;-78
2023/12/23 09:24:26;;;;;;;2.43;2.23;;;;;;;3.67;100.00;98865.75;5056673;28;20640;-78
2023/12/23 09:26:52;;;;;;;2.67;2.47;;;;;;;3.46;100.00;98874.66;5056878;28;21312;-78
2023/12/23 09:29:21;;;;;;;1.63;1.53;;;;;;;3.34;100.00;98873.13;5057359;28;20299;-78
2023/12/23 09:31:47;;;;;;;3.77;3.57;;;;;;;3.46;100.00;98866.06;5057200;28;20214;-78
2023/12/23 09:34:13;;;;;;;2.83;2.63;;;;;;;3.64;100.00;98862.34;5056907;28;20225;-78
2023/12/23 09:36:40;;;;;;;1.30;1.20;;;;;;;3.71;100.00;98862.22;5056873;28;20206;-78
2023/12/23 09:39:06;;;;;;;1.00;0.90;;;;;;;3.98;100.00;98873.81;5055680;28;20377;-78
2023/12/23 09:41:33;;;;;;;1.47;1.23;;;;;;;3.88;100.00;98894.63;5058105;28;20206;-79
2023/12/23 09:43:59;;;;;;;0.63;0.63;;;;;;;3.79;100.00;98918.88;5056691;28;20225;-79
2023/12/23 09:46:27;;;;;;;1.30;1.20;;;;;;;3.68;100.00;98936.25;5056795;28;20206;-78
2023/12/23 09:48:53;;;;;;;1.00;1.00;;;;;;;3.21;100.00;98954.13;5057399;28;20684;-78
2023/12/23 09:51:26;;;;;;;1.20;1.10;;;;;;;3.59;100.00;98929.50;5057567;28;20202;-78
2023/12/23 09:53:57;;;;;;;1.03;1.03;;;;;;;3.11;100.00;98913.84;5056841;28;20272;-79
2023/12/23 09:56:24;;;;;;;0.60;0.60;;;;;;;3.12;100.00;98895.78;5057246;28;20203;-78
2023/12/23 09:58:51;;;;;;;3.13;2.60;;;;;;;3.33;100.00;98888.59;5058688;28;20261;-79
2023/12/23 10:01:17;;;;;;;20.20;15.37;;;;;;;3.17;100.00;98899.16;5056718;28;20206;-78
2023/12/23 10:03:46;;;;;;;3.50;3.27;;;;;;;3.17;100.00;98875.97;5056848;28;20656;-78
2023/12/23 10:06:15;;;;;;;1.40;1.30;;;;;;;3.24;100.00;98874.13;5058636;28;20292;-79
2023/12/23 10:08:42;;;;;;;1.73;1.63;;;;;;;3.20;100.00;98885.38;5057586;28;20229;-78
2023/12/23 10:11:09;;;;;;;7.73;7.23;;;;;;;3.05;100.00;98885.56;5057571;28;20605;-78
2023/12/23 10:13:35;;;;;;;3.80;3.50;;;;;;;3.24;100.00;98889.59;5056912;28;20649;-78
2023/12/23 10:16:01;;;;;;;4.27;3.87;;;;;;;3.28;100.00;98898.16;5049775;28;20247;-79
2023/12/23 10:18:28;;;;;;;2.37;2.23;;;;;;;2.96;100.00;98900.28;5057885;28;20665;-78
2023/12/23 10:20:56;;;;;;;0.90;0.90;;;;;;;3.03;100.00;98893.31;5058217;28;20198;-79
2023/12/23 10:23:22;;;;;;;1.33;1.27;;;;;;;3.05;100.00;98885.56;5055112;28;20255;-78
2023/12/23 10:25:48;;;;;;;1.57;1.23;;;;;;;2.96;100.00;98894.28;5058887;28;20262;-80
2023/12/23 10:28:18;;;;;;;2.10;2.00;;;;;;;3.23;100.00;98889.63;5062614;28;20206;-78
2023/12/23 10:30:48;;;;;;;2.43;2.23;;;;;;;3.46;100.00;98882.41;5060102;28;20310;-78
2023/12/23 10:33:17;;;;;;;20.00;18.03;;;;;;;3.14;100.00;98900.94;5046492;28;20207;-79
2023/12/23 10:35:46;;;;;;;12.33;11.23;;;;;;;2.90;100.00;98891.78;5052354;28;20206;-79
2023/12/23 10:38:16;;;;;;;5.03;4.63;;;;;;;2.91;100.00;98876.28;5055063;28;20212;-79
2023/12/23 10:40:44;;;;;;;2.30;2.20;;;;;;;2.78;100.00;98864.47;5055075;28;20623;-80
2023/12/23 10:43:11;;;;;;;2.00;1.80;;;;;;;3.08;100.00;98837.41;5055386;28;20198;-80
2023/12/23 10:45:41;;;;;;;3.03;2.47;;;;;;;3.20;100.00;98832.97;5056207;28;20202;-78
2023/12/23 10:48:10;;;;;;;5.37;4.97;;;;;;;2.90;100.00;98830.78;5047871;28;20706;-79
2023/12/23 10:50:37;;;;;;;6.30;5.80;;;;;;;3.03;100.00;98812.56;5058034;28;20221;-78
2023/12/23 10:53:06;;;;;;;3.90;3.60;;;;;;;2.89;100.00;98817.91;5056735;28;20203;-78
2023/12/23 10:55:36;;;;;;;7.03;6.33;;;;;;;2.87;100.00;98814.50;5055848;28;20255;-78
2023/12/23 10:58:04;;;;;;;9.33;8.53;;;;;;;2.89;100.00;98797.31;5055581;28;20233;-77
2023/12/23 11:00:30;;;;;;;1.20;1.10;;;;;;;2.91;100.00;98798.13;5054983;28;20782;-78
2023/12/23 11:02:58;;;;;;;2.63;2.43;;;;;;;2.91;100.00;98793.81;5054968;28;20640;-78
2023/12/23 11:05:26;;;;;;;2.37;2.17;;;;;;;2.82;100.00;98787.97;5054643;28;20598;-78
2023/12/23 11:07:55;;;;;;;3.83;3.53;;;;;;;3.05;100.00;98778.16;5055420;28;20205;-79
2023/12/23 11:10:22;;;;;;;4.83;4.43;;;;;;;2.92;100.00;98781.81;5054768;28;20225;-77
2023/12/23 11:12:50;;;;;;;6.97;6.37;;;;;;;2.85;100.00;98788.75;5054379;28;20209;-78
2023/12/23 11:15:17;;;;;;;5.63;5.10;;;;;;;3.01;100.00;98779.06;5053874;28;20299;-78
2023/12/23 11:17:46;;;;;;;7.50;6.73;;;;;;;2.90;100.00;98775.84;5054067;28;20757;-77
2023/12/23 11:20:47;;;;;;;5.23;4.47;;;;;;;2.89;100.00;98771.53;5054485;28;20259;-78
2023/12/23 11:23:34;;;;;;;12.07;8.07;;;;;;;3.28;100.00;98770.06;5050723;28;20288;-79
2023/12/23 11:26:01;;;;;;;1.90;1.70;;;;;;;3.24;100.00;98781.31;5055331;28;20215;-79
2023/12/23 11:28:30;;;;;;;1.10;1.00;;;;;;;3.18;100.00;98777.09;5058740;28;20208;-80
2023/12/23 11:30:58;;;;;;;0.40;0.40;;;;;;;3.23;100.00;98782.19;5061109;28;20247;-81
2023/12/23 11:33:28;;;;;;;0.93;0.93;;;;;;;3.24;100.00;98786.47;5057078;28;20206;-79
2023/12/23 11:35:58;;;;;;;1.37;1.27;;;;;;;3.09;100.00;98791.84;5059531;28;20202;-80